Time;durP1;ratioP1;P1;durP2;ratioP2;P2;SDS_P1;SDS_P2;PMS_P1;PMS_P2;Temp;Humidity;BMP_temperature;BMP_pressure;BME280_temperature;BME280_humidity;BME280_pressure;Samples;Min_cycle;Max_cycle;Signal;HPM_P1;HPM_P2
2023/01/01 00:02:13;;;;;;;21.43;17.60;;;20.80;32.20;;;;;;5113112;28;20163;-54
2023/01/01 00:04:38;;;;;;;13.53;11.10;;;20.80;32.20;;;;;;5113016;28;20576;-53
2023/01/01 00:07:04;;;;;;;20.00;10.70;;;20.70;32.00;;;;;;5113316;28;20179;-53
2023/01/01 00:12:14;;;;;;;11.82;8.77;;;20.70;32.20;;;;;;5113193;28;20661;-53
2023/01/01 00:14:43;;;;;;;7.60;6.90;;;20.70;31.80;;;;;;5112636;28;20179;-54
2023/01/01 00:17:09;;;;;;;7.50;6.30;;;20.60;32.30;;;;;;5112970;28;20278;-54
2023/01/01 00:19:35;;;;;;;10.52;9.43;;;20.60;32.30;;;;;;5113058;28;20195;-53
2023/01/01 00:22:01;;;;;;;11.00;6.80;;;20.60;32.30;;;;;;5112917;28;20197;-54
2023/01/01 00:24:26;;;;;;;7.80;6.80;;;20.60;32.20;;;;;;5112749;28;20406;-54
2023/01/01 00:26:52;;;;;;;7.07;6.33;;;20.70;32.30;;;;;;5112740;28;20670;-53
2023/01/01 00:29:18;;;;;;;8.33;6.30;;;20.70;32.20;;;;;;5112684;28;20175;-53
2023/01/01 00:31:44;;;;;;;7.93;7.10;;;20.80;32.00;;;;;;5112942;28;20167;-53
2023/01/01 00:34:10;;;;;;;8.52;6.88;;;20.90;32.00;;;;;;5112672;28;20167;-54
2023/01/01 00:36:36;;;;;;;7.23;5.73;;;20.90;32.10;;;;;;5112463;28;20210;-53
2023/01/01 00:39:04;;;;;;;8.07;5.27;;;20.90;31.80;;;;;;5112621;28;20526;-53
2023/01/01 00:41:29;;;;;;;9.88;6.00;;;20.80;32.00;;;;;;5112602;28;20173;-53
2023/01/01 00:43:55;;;;;;;8.60;6.27;;;20.80;31.80;;;;;;5112564;28;20171;-53
2023/01/01 00:46:21;;;;;;;7.93;6.50;;;20.80;32.20;;;;;;5112462;28;20520;-54
2023/01/01 00:48:47;;;;;;;6.90;5.30;;;20.90;32.00;;;;;;5112539;28;20646;-53
2023/01/01 00:51:12;;;;;;;6.53;4.57;;;20.80;31.80;;;;;;5112464;28;20174;-54
2023/01/01 00:53:38;;;;;;;6.67;4.80;;;20.70;32.00;;;;;;5112440;28;20164;-54
2023/01/01 00:56:04;;;;;;;5.03;4.53;;;20.70;32.00;;;;;;5112122;28;20203;-54
2023/01/01 00:58:30;;;;;;;5.57;4.93;;;20.50;32.50;;;;;;5112524;28;20484;-54
2023/01/01 01:00:56;;;;;;;4.87;4.20;;;20.50;32.70;;;;;;5112481;28;20187;-54
2023/01/01 01:03:28;;;;;;;5.10;4.40;;;20.50;33.10;;;;;;5112589;28;20662;-54
2023/01/01 01:05:58;;;;;;;7.20;4.57;;;20.60;32.20;;;;;;5112254;28;20283;-54
2023/01/01 01:08:25;;;;;;;5.20;4.70;;;20.60;32.10;;;;;;5114938;28;20171;-53
2023/01/01 01:10:51;;;;;;;6.53;4.50;;;20.60;32.20;;;;;;5116391;28;20222;-53
2023/01/01 01:13:16;;;;;;;6.30;4.30;;;20.60;31.90;;;;;;5116532;28;20257;-53
2023/01/01 01:15:42;;;;;;;4.40;3.90;;;20.60;31.70;;;;;;5116087;28;20278;-53
2023/01/01 01:18:08;;;;;;;5.83;4.23;;;20.60;31.90;;;;;;5116557;28;20250;-53
2023/01/01 01:20:34;;;;;;;6.20;4.47;;;20.60;31.70;;;;;;5116327;28;20286;-54
2023/01/01 01:22:59;;;;;;;5.87;4.27;;;20.50;31.90;;;;;;5116202;28;20488;-53
2023/01/01 01:25:25;;;;;;;4.03;3.63;;;20.50;31.60;;;;;;5115987;28;20191;-53
2023/01/01 01:27:51;;;;;;;5.60;3.70;;;20.50;31.90;;;;;;5116136;28;20232;-53
2023/01/01 01:30:17;;;;;;;5.63;4.00;;;20.50;31.60;;;;;;5116182;28;20167;-57
2023/01/01 01:32:43;;;;;;;7.20;4.90;;;20.40;31.70;;;;;;5116049;28;20172;-53
2023/01/01 01:35:09;;;;;;;8.70;5.00;;;20.40;31.70;;;;;;5115636;28;20195;-53
2023/01/01 01:37:35;;;;;;;7.03;5.47;;;20.40;31.60;;;;;;5116282;28;20764;-53
2023/01/01 01:40:01;;;;;;;8.40;4.90;;;20.40;31.50;;;;;;5116075;28;20159;-53
2023/01/01 01:42:26;;;;;;;6.77;5.27;;;20.40;31.30;;;;;;5115935;28;20170;-53
2023/01/01 01:44:56;;;;;;;9.30;5.27;;;20.30;31.70;;;;;;5115679;28;20162;-53
2023/01/01 01:47:27;;;;;;;9.23;4.70;;;20.30;31.30;;;;;;5115886;28;20219;-51
2023/01/01 01:50:01;;;;;;;6.95;4.85;;;20.30;31.70;;;;;;5115991;28;20247;-53
2023/01/01 01:52:29;;;;;;;6.30;4.25;;;20.30;31.50;;;;;;5115693;28;20537;-53
2023/01/01 01:54:56;;;;;;;5.30;4.05;;;20.20;31.50;;;;;;5115351;28;20790;-53
2023/01/01 01:57:22;;;;;;;4.38;3.78;;;20.10;31.40;;;;;;5115485;28;20214;-53
2023/01/01 01:59:52;;;;;;;4.28;3.30;;;20.20;31.40;;;;;;5115511;28;20678;-53
2023/01/01 02:02:44;;;;;;;6.93;4.05;;;20.10;31.50;;;;;;5115541;28;20175;-53
2023/01/01 02:05:10;;;;;;;3.78;3.30;;;20.20;31.40;;;;;;5115212;28;20181;-53
2023/01/01 02:07:37;;;;;;;4.65;3.22;;;20.10;31.40;;;;;;5115434;28;20171;-53
2023/01/01 02:10:03;;;;;;;3.75;3.17;;;20.10;31.30;;;;;;5115488;28;20174;-53
2023/01/01 02:12:29;;;;;;;6.10;3.95;;;20.10;31.50;;;;;;5115389;28;20172;-53
2023/01/01 02:14:55;;;;;;;4.03;2.75;;;20.10;31.60;;;;;;5115153;28;20187;-53
2023/01/01 02:17:37;;;;;;;5.30;2.95;;;20.10;31.30;;;;;;5115186;28;20219;-53
2023/01/01 02:20:38;;;;;;;4.20;3.28;;;20.10;31.30;;;;;;5113127;28;20168;-53
2023/01/01 02:23:41;;;;;;;3.33;2.55;;;20.10;31.20;;;;;;5115338;28;20178;-53
2023/01/01 02:26:25;;;;;;;3.15;2.72;;;20.00;31.10;;;;;;5114766;28;20195;-53
2023/01/01 02:28:59;;;;;;;4.55;2.88;;;20.00;31.30;;;;;;5115250;28;20176;-53
2023/01/01 02:31:35;;;;;;;3.40;2.75;;;20.00;31.10;;;;;;5115037;28;20165;-53
2023/01/01 02:34:07;;;;;;;6.53;2.75;;;20.00;31.30;;;;;;5115041;28;20174;-53
2023/01/01 02:36:37;;;;;;;4.45;2.95;;;20.00;31.10;;;;;;5114562;28;20311;-53
2023/01/01 02:39:06;;;;;;;5.03;2.50;;;20.00;31.10;;;;;;5114818;28;20538;-53
2023/01/01 02:41:44;;;;;;;3.65;2.53;;;20.00;31.00;;;;;;5114882;28;20277;-53
2023/01/01 02:44:11;;;;;;;6.07;2.97;;;19.90;31.10;;;;;;5113523;28;20228;-53
2023/01/01 02:46:37;;;;;;;4.25;3.25;;;19.80;31.30;;;;;;5114617;28;20195;-53
2023/01/01 02:49:03;;;;;;;3.17;2.43;;;19.90;31.60;;;;;;5114645;28;20703;-53
2023/01/01 02:51:49;;;;;;;7.57;2.45;;;19.90;31.30;;;;;;5114598;28;20412;-53
2023/01/01 02:54:18;;;;;;;3.53;2.80;;;19.90;31.00;;;;;;5114487;28;20175;-53
2023/01/01 02:56:49;;;;;;;2.72;2.50;;;19.90;31.30;;;;;;5114355;28;20211;-53
2023/01/01 03:02:33;;;;;;;3.17;2.67;;;20.00;30.40;;;;;;5114715;28;20216;-53
2023/01/01 03:05:22;;;;;;;4.55;2.60;;;20.00;30.80;;;;;;5114110;28;20680;-53
2023/01/01 03:08:02;;;;;;;2.97;1.73;;;20.00;30.80;;;;;;5114200;28;20181;-53
2023/01/01 03:10:44;;;;;;;8.55;2.78;;;20.00;30.60;;;;;;5114246;28;20167;-53
2023/01/01 03:13:19;;;;;;;7.10;2.85;;;19.90;30.70;;;;;;5114272;28;20171;-53
2023/01/01 03:16:08;;;;;;;7.20;2.60;;;19.90;31.00;;;;;;5113843;28;20589;-53
2023/01/01 03:19:27;;;;;;;3.25;2.45;;;19.90;30.10;;;;;;5114109;28;20643;-53
2023/01/01 03:21:55;;;;;;;3.15;2.20;;;19.90;30.30;;;;;;5108165;28;20607;-53
2023/01/01 03:24:26;;;;;;;3.08;2.20;;;19.90;30.20;;;;;;5112440;28;20193;-53
2023/01/01 03:26:56;;;;;;;5.15;2.05;;;20.00;30.00;;;;;;5113896;28;20217;-53
2023/01/01 03:29:23;;;;;;;3.85;2.95;;;20.10;29.40;;;;;;5113808;28;20171;-53
2023/01/01 03:31:54;;;;;;;5.03;2.33;;;20.10;29.40;;;;;;5113869;28;20183;-53
2023/01/01 03:34:27;;;;;;;3.92;2.22;;;20.10;30.20;;;;;;5113669;28;20175;-53
2023/01/01 03:36:57;;;;;;;5.10;3.13;;;20.10;29.70;;;;;;5113541;28;20591;-53
2023/01/01 03:39:44;;;;;;;5.57;2.38;;;20.10;29.10;;;;;;5113859;28;20168;-53
2023/01/01 03:42:33;;;;;;;3.42;2.50;;;20.10;29.20;;;;;;5113589;28;20216;-53
2023/01/01 03:45:16;;;;;;;2.67;1.90;;;20.00;29.30;;;;;;5113376;28;20171;-53
2023/01/01 03:47:42;;;;;;;5.32;2.30;;;20.10;29.40;;;;;;5113618;28;20167;-53
2023/01/01 03:50:08;;;;;;;7.95;2.50;;;20.00;29.40;;;;;;5113423;28;20175;-53
2023/01/01 03:52:42;;;;;;;3.58;1.73;;;19.90;29.20;;;;;;5113408;28;20258;-53
2023/01/01 03:55:14;;;;;;;5.10;2.40;;;19.90;29.20;;;;;;5113026;28;20199;-54
2023/01/01 03:57:54;;;;;;;4.78;2.90;;;19.90;29.40;;;;;;5111767;22;20224;-52
2023/01/01 04:00:27;;;;;;;4.05;1.90;;;20.00;29.20;;;;;;5092878;28;20159;-53
2023/01/01 04:03:00;;;;;;;3.10;2.45;;;20.00;29.30;;;;;;5093258;28;20183;-53
2023/01/01 04:05:28;;;;;;;4.20;1.92;;;20.00;28.80;;;;;;5092626;28;20160;-53
2023/01/01 04:07:55;;;;;;;4.13;1.98;;;20.10;29.00;;;;;;5092679;28;20618;-53
2023/01/01 04:10:23;;;;;;;5.43;2.05;;;20.00;28.60;;;;;;5074571;28;20176;-53
2023/01/01 04:12:51;;;;;;;5.93;2.85;;;20.00;28.90;;;;;;5092573;28;20180;-53
2023/01/01 04:15:25;;;;;;;5.28;2.70;;;19.90;28.70;;;;;;5092378;28;20199;-52
2023/01/01 04:17:52;;;;;;;6.38;2.47;;;19.90;28.70;;;;;;5092658;28;20195;-52
2023/01/01 04:20:18;;;;;;;3.05;1.90;;;19.80;28.90;;;;;;5092550;28;20179;-53
2023/01/01 04:22:44;;;;;;;3.60;1.83;;;19.80;28.70;;;;;;5092559;28;20224;-53
2023/01/01 04:25:10;;;;;;;3.47;2.42;;;19.90;28.70;;;;;;5092190;28;20897;-52
2023/01/01 04:27:37;;;;;;;5.50;2.70;;;19.90;28.50;;;;;;5092330;28;20208;-53
2023/01/01 04:30:08;;;;;;;4.25;1.85;;;20.00;28.60;;;;;;5092578;28;20172;-53
2023/01/01 04:32:34;;;;;;;4.65;2.00;;;20.00;28.30;;;;;;5092318;28;20221;-53
2023/01/01 04:35:00;;;;;;;5.40;1.90;;;20.00;28.40;;;;;;5092206;28;20460;-53
2023/01/01 04:37:26;;;;;;;3.73;2.40;;;20.00;28.10;;;;;;5092263;28;20267;-53
2023/01/01 04:39:51;;;;;;;8.90;3.20;;;20.00;28.20;;;;;;5092176;28;20483;-53
2023/01/01 04:42:18;;;;;;;7.10;2.17;;;19.90;28.30;;;;;;5092035;28;20174;-53
2023/01/01 04:44:43;;;;;;;3.67;2.83;;;19.80;28.60;;;;;;5092102;28;20163;-53
2023/01/01 04:47:09;;;;;;;5.63;1.93;;;19.80;28.50;;;;;;5092119;28;20521;-52
2023/01/01 04:49:35;;;;;;;4.45;2.85;;;19.80;28.40;;;;;;5092143;28;20672;-53
2023/01/01 04:52:01;;;;;;;4.75;2.90;;;19.80;28.40;;;;;;5092103;28;20183;-53
2023/01/01 04:54:27;;;;;;;6.50;3.40;;;19.80;28.30;;;;;;5091902;28;20197;-52
2023/01/01 04:56:53;;;;;;;4.50;2.10;;;19.80;28.30;;;;;;5092044;28;20758;-53
2023/01/01 04:59:18;;;;;;;5.57;3.37;;;19.70;28.40;;;;;;5092265;28;20168;-52
2023/01/01 05:01:44;;;;;;;3.90;2.40;;;19.70;28.30;;;;;;5092101;28;20802;-53
2023/01/01 05:04:13;;;;;;;5.23;2.90;;;19.70;28.50;;;;;;5091961;28;20167;-52
2023/01/01 05:06:39;;;;;;;3.78;2.15;;;19.80;28.10;;;;;;5091858;28;20188;-52
2023/01/01 05:09:04;;;;;;;5.67;2.90;;;19.60;28.30;;;;;;5091978;28;20198;-53
2023/01/01 05:11:31;;;;;;;6.33;2.80;;;19.60;28.50;;;;;;5092179;28;20980;-52
2023/01/01 05:14:00;;;;;;;4.07;2.30;;;19.70;28.30;;;;;;5091968;28;20168;-53
2023/01/01 05:16:29;;;;;;;3.83;2.10;;;19.70;28.40;;;;;;5091567;28;20207;-52
2023/01/01 05:18:55;;;;;;;5.47;2.25;;;19.60;28.30;;;;;;5092337;28;20239;-53
2023/01/01 05:21:32;;;;;;;8.13;2.70;;;19.50;28.50;;;;;;5091899;28;20321;-53
2023/01/01 05:24:04;;;;;;;7.82;2.80;;;19.60;28.60;;;;;;5091834;28;20402;-53
2023/01/01 05:26:32;;;;;;;4.00;1.98;;;19.50;28.40;;;;;;5091641;28;20230;-53
2023/01/01 05:28:59;;;;;;;9.70;3.00;;;19.50;28.50;;;;;;5091927;28;20184;-53
2023/01/01 05:31:32;;;;;;;8.98;3.47;;;19.60;28.60;;;;;;5091776;28;20168;-53
2023/01/01 05:33:58;;;;;;;5.65;2.65;;;19.60;28.50;;;;;;5091692;28;20172;-53
2023/01/01 05:36:27;;;;;;;5.10;2.95;;;19.60;28.40;;;;;;5091631;28;20253;-52
2023/01/01 05:38:53;;;;;;;5.30;2.70;;;19.60;28.50;;;;;;5091759;28;20214;-53
2023/01/01 05:41:20;;;;;;;6.22;2.08;;;19.60;28.60;;;;;;5091719;28;20168;-52
2023/01/01 05:43:46;;;;;;;4.45;2.15;;;19.50;28.90;;;;;;5091675;28;20161;-53
2023/01/01 05:46:17;;;;;;;5.67;2.87;;;19.60;28.70;;;;;;5091307;28;20204;-52
2023/01/01 05:48:44;;;;;;;4.97;2.58;;;19.60;28.60;;;;;;5092061;28;20876;-53
2023/01/01 05:51:15;;;;;;;3.85;3.13;;;19.60;28.70;;;;;;5091775;28;20187;-53
2023/01/01 05:53:43;;;;;;;3.45;2.55;;;19.60;28.30;;;;;;5091677;28;20612;-52
2023/01/01 05:56:10;;;;;;;4.88;2.20;;;19.60;28.60;;;;;;5094601;28;20262;-52
2023/01/01 05:58:36;;;;;;;5.05;1.63;;;19.60;28.80;;;;;;5095277;28;20168;-52
2023/01/01 06:01:19;;;;;;;3.67;2.00;;;19.60;28.80;;;;;;5095104;28;20176;-52
2023/01/01 06:03:47;;;;;;;5.10;2.05;;;19.60;28.60;;;;;;5095235;28;20635;-52
2023/01/01 06:06:16;;;;;;;5.47;2.45;;;19.50;28.80;;;;;;5094812;28;20327;-53
2023/01/01 06:08:47;;;;;;;7.78;2.20;;;19.40;28.90;;;;;;5095014;28;20647;-52
2023/01/01 06:11:13;;;;;;;4.25;2.38;;;19.40;29.00;;;;;;5095111;28;20204;-52
2023/01/01 06:13:38;;;;;;;6.33;3.03;;;19.50;28.90;;;;;;5094878;28;20195;-53
2023/01/01 06:16:05;;;;;;;4.10;2.47;;;19.40;29.00;;;;;;5094585;28;20667;-52
2023/01/01 06:18:33;;;;;;;4.15;2.10;;;19.50;29.00;;;;;;5095031;28;20164;-52
2023/01/01 06:21:08;;;;;;;6.15;2.60;;;19.50;28.70;;;;;;5094776;28;20639;-53
2023/01/01 06:23:33;;;;;;;5.10;2.75;;;19.50;28.80;;;;;;5094750;28;20176;-53
2023/01/01 06:26:21;;;;;;;4.03;2.40;;;19.50;29.00;;;;;;5094335;28;20182;-52
2023/01/01 06:28:47;;;;;;;4.53;3.17;;;19.50;29.10;;;;;;5094636;28;20192;-52
2023/01/01 06:31:16;;;;;;;4.15;1.60;;;19.40;29.30;;;;;;5094586;28;20183;-52
2023/01/01 06:33:42;;;;;;;4.78;2.25;;;19.30;29.50;;;;;;5094694;28;20172;-52
2023/01/01 06:36:10;;;;;;;4.70;2.58;;;19.30;29.60;;;;;;5094176;28;20210;-53
2023/01/01 06:38:39;;;;;;;5.88;2.45;;;19.40;29.40;;;;;;5094392;28;20558;-53
2023/01/01 06:41:07;;;;;;;7.43;2.95;;;19.40;29.40;;;;;;5094436;28;20533;-52
2023/01/01 06:43:34;;;;;;;10.93;2.60;;;19.40;29.70;;;;;;5094402;28;20187;-52
2023/01/01 06:46:04;;;;;;;4.65;2.70;;;19.40;29.40;;;;;;5094140;28;20535;-52
2023/01/01 06:48:32;;;;;;;4.05;2.65;;;19.40;29.80;;;;;;5094310;28;20225;-52
2023/01/01 06:51:03;;;;;;;6.05;2.60;;;19.40;29.90;;;;;;5094112;28;20535;-52
2023/01/01 06:53:29;;;;;;;4.90;2.33;;;19.40;29.90;;;;;;5094147;28;20681;-52
2023/01/01 06:55:55;;;;;;;5.50;2.63;;;19.40;29.90;;;;;;5093788;28;20199;-52
2023/01/01 06:58:20;;;;;;;6.03;3.40;;;19.40;30.10;;;;;;5094047;28;20262;-53
2023/01/01 07:00:46;;;;;;;5.30;2.53;;;19.30;30.40;;;;;;5094020;28;20160;-52
2023/01/01 07:03:12;;;;;;;5.60;2.70;;;19.30;30.40;;;;;;5094476;28;20172;-52
2023/01/01 07:05:37;;;;;;;7.60;3.37;;;19.20;30.60;;;;;;5093284;28;20247;-52
2023/01/01 07:08:03;;;;;;;3.87;2.53;;;19.20;30.60;;;;;;5094074;28;20199;-52
2023/01/01 07:10:29;;;;;;;3.97;2.80;;;19.30;30.50;;;;;;5093759;28;20517;-52
2023/01/01 07:12:55;;;;;;;4.27;3.03;;;19.40;30.60;;;;;;5093875;28;20172;-52
2023/01/01 07:15:20;;;;;;;6.17;2.90;;;19.40;30.50;;;;;;5093493;28;20228;-52
2023/01/01 07:17:46;;;;;;;4.53;3.00;;;19.40;30.60;;;;;;5093627;28;20765;-53
2023/01/01 07:20:12;;;;;;;5.30;3.00;;;19.40;30.70;;;;;;5093480;28;20171;-53
2023/01/01 07:22:39;;;;;;;3.80;2.63;;;19.40;30.60;;;;;;5093632;28;20211;-52
2023/01/01 07:25:06;;;;;;;4.38;3.00;;;19.50;30.80;;;;;;5093615;28;20180;-53
2023/01/01 07:27:31;;;;;;;4.28;2.88;;;19.40;30.90;;;;;;5093511;28;20188;-52
2023/01/01 07:29:57;;;;;;;4.83;3.33;;;19.40;30.80;;;;;;5093708;28;20351;-53
2023/01/01 07:32:23;;;;;;;4.10;2.73;;;19.40;31.10;;;;;;5093528;28;20678;-53
2023/01/01 07:34:48;;;;;;;5.43;3.60;;;19.40;31.00;;;;;;5093035;28;20628;-52
2023/01/01 07:37:14;;;;;;;10.97;4.00;;;19.50;31.10;;;;;;5093265;28;20203;-53
2023/01/01 07:39:40;;;;;;;4.10;3.17;;;19.60;30.90;;;;;;5093303;28;20172;-52
2023/01/01 07:42:05;;;;;;;7.10;3.80;;;19.60;30.80;;;;;;5093447;28;20211;-53
2023/01/01 07:44:31;;;;;;;5.10;2.80;;;19.70;30.90;;;;;;5092939;28;20163;-53
2023/01/01 07:47:02;;;;;;;3.93;3.53;;;19.70;30.90;;;;;;5093090;28;20674;-53
2023/01/01 07:49:27;;;;;;;5.00;3.70;;;19.70;30.80;;;;;;5093024;28;20176;-53
2023/01/01 07:51:53;;;;;;;10.37;4.13;;;19.70;30.80;;;;;;5093100;28;20531;-53
2023/01/01 07:54:19;;;;;;;4.80;3.20;;;19.70;30.80;;;;;;5093048;28;20218;-53
2023/01/01 07:56:44;;;;;;;6.10;4.37;;;19.80;30.80;;;;;;5092803;28;20218;-53
2023/01/01 07:59:10;;;;;;;7.77;4.50;;;19.80;31.30;;;;;;5092904;28;20171;-52
2023/01/01 08:01:36;;;;;;;5.20;3.80;;;19.70;30.90;;;;;;5092945;28;20168;-53
2023/01/01 08:04:03;;;;;;;5.93;3.90;;;19.80;30.90;;;;;;5092715;28;20175;-53
2023/01/01 08:06:28;;;;;;;7.50;3.33;;;19.80;30.80;;;;;;5092729;28;20430;-53
2023/01/01 08:08:54;;;;;;;4.73;3.97;;;19.80;30.40;;;;;;5092789;28;20180;-53
2023/01/01 08:11:20;;;;;;;4.80;4.07;;;19.80;30.70;;;;;;5092734;28;20160;-52
2023/01/01 08:13:45;;;;;;;5.60;3.57;;;19.80;30.60;;;;;;5092629;28;20172;-53
2023/01/01 08:16:11;;;;;;;8.20;3.93;;;19.80;30.60;;;;;;5092287;28;20204;-53
2023/01/01 08:18:37;;;;;;;7.37;4.07;;;19.80;30.90;;;;;;5091795;28;20176;-53
2023/01/01 08:21:03;;;;;;;4.10;2.87;;;19.80;30.80;;;;;;5092784;28;20172;-52
2023/01/01 08:23:29;;;;;;;6.47;4.32;;;19.90;30.70;;;;;;5092550;28;20191;-52
2023/01/01 08:26:00;;;;;;;5.93;4.10;;;19.90;30.30;;;;;;5092317;28;20215;-53
2023/01/01 08:28:26;;;;;;;4.82;3.80;;;20.10;30.30;;;;;;5092468;28;20233;-53
2023/01/01 08:30:51;;;;;;;7.00;4.60;;;20.20;30.00;;;;;;5092425;28;20180;-52
2023/01/01 08:33:17;;;;;;;5.80;3.50;;;20.20;29.90;;;;;;5092220;28;20817;-52
2023/01/01 08:35:43;;;;;;;4.10;3.40;;;20.40;29.80;;;;;;5092120;28;20279;-53
2023/01/01 08:38:10;;;;;;;5.70;3.73;;;20.40;29.50;;;;;;5092173;28;20711;-54
2023/01/01 08:40:36;;;;;;;4.00;3.28;;;20.50;29.70;;;;;;5092355;28;20781;-53
2023/01/01 08:43:02;;;;;;;9.00;3.97;;;20.50;28.90;;;;;;5074106;28;20213;-53
2023/01/01 08:45:28;;;;;;;7.17;3.73;;;20.50;28.90;;;;;;5092076;28;20492;-52
2023/01/01 08:47:54;;;;;;;5.33;3.57;;;20.70;29.10;;;;;;5092039;28;20194;-53
2023/01/01 08:50:19;;;;;;;6.50;3.40;;;20.80;28.90;;;;;;5092351;28;20528;-53
2023/01/01 08:52:45;;;;;;;3.80;3.10;;;20.80;28.30;;;;;;5092199;28;20179;-53
2023/01/01 08:55:11;;;;;;;5.10;3.30;;;20.70;28.60;;;;;;5091830;28;20243;-53
2023/01/01 08:57:36;;;;;;;3.93;3.00;;;20.70;28.50;;;;;;5091851;28;20252;-53
2023/01/01 09:00:03;;;;;;;3.50;3.20;;;20.80;28.60;;;;;;5092109;28;20175;-54
2023/01/01 09:02:30;;;;;;;4.60;3.03;;;20.90;28.60;;;;;;5091948;28;20206;-53
2023/01/01 09:04:56;;;;;;;6.10;3.00;;;21.00;28.00;;;;;;5091815;28;20902;-53
2023/01/01 09:07:22;;;;;;;10.30;4.07;;;21.00;28.00;;;;;;5091985;28;20429;-53
2023/01/01 09:09:47;;;;;;;5.53;3.30;;;21.00;28.20;;;;;;5092049;28;20174;-53
2023/01/01 09:12:15;;;;;;;4.97;3.00;;;21.00;28.20;;;;;;5092024;28;20531;-53
2023/01/01 09:14:41;;;;;;;5.57;2.67;;;20.90;28.00;;;;;;5091738;28;20172;-53
2023/01/01 09:17:07;;;;;;;5.93;2.83;;;20.90;28.20;;;;;;5091772;28;20465;-53
2023/01/01 09:19:33;;;;;;;5.30;3.20;;;20.80;28.20;;;;;;5091908;28;20402;-52
2023/01/01 09:21:58;;;;;;;4.90;3.10;;;20.70;28.30;;;;;;5091865;28;20164;-52
2023/01/01 09:24:24;;;;;;;3.43;2.57;;;20.60;28.20;;;;;;5091638;28;20585;-53
2023/01/01 09:26:50;;;;;;;5.57;3.10;;;20.40;28.50;;;;;;5091806;28;20614;-52
2023/01/01 09:29:20;;;;;;;7.10;3.70;;;20.50;28.70;;;;;;5094047;28;20176;-53
2023/01/01 09:31:47;;;;;;;6.10;2.90;;;20.50;28.80;;;;;;5095798;28;20176;-53
2023/01/01 09:34:13;;;;;;;4.83;2.53;;;20.50;28.60;;;;;;5095656;28;20398;-53
2023/01/01 09:36:39;;;;;;;11.00;2.83;;;20.40;28.80;;;;;;5095391;28;20457;-53
2023/01/01 09:39:05;;;;;;;5.43;2.60;;;20.40;28.80;;;;;;5095683;28;20766;-52
2023/01/01 09:41:48;;;;;;;3.23;2.00;;;20.30;29.20;;;;;;5095518;28;20406;-53
2023/01/01 09:44:32;;;;;;;3.30;2.27;;;20.20;29.20;;;;;;5095609;28;20509;-53
2023/01/01 09:47:01;;;;;;;6.40;2.90;;;20.30;29.30;;;;;;5095412;28;20426;-53
2023/01/01 09:49:43;;;;;;;3.65;2.60;;;20.30;29.40;;;;;;5095323;28;20429;-53
2023/01/01 09:52:13;;;;;;;2.60;1.93;;;20.40;29.10;;;;;;5095317;28;20188;-54
2023/01/01 09:55:02;;;;;;;7.33;2.80;;;20.60;28.80;;;;;;5095538;28;20907;-53
2023/01/01 09:57:30;;;;;;;7.30;6.07;;;20.90;28.40;;;;;;5095170;28;20847;-53
2023/01/01 09:59:58;;;;;;;5.10;2.70;;;21.00;28.30;;;;;;5095200;28;20431;-52
2023/01/01 10:02:35;;;;;;;3.72;2.22;;;21.10;28.10;;;;;;5095255;28;20405;-53
2023/01/01 10:05:13;;;;;;;3.70;3.10;;;21.40;28.10;;;;;;5094831;28;20561;-53
2023/01/01 10:07:54;;;;;;;7.47;3.17;;;21.70;27.80;;;;;;5094986;28;20761;-52
2023/01/01 10:10:45;;;;;;;4.10;2.30;;;21.60;26.80;;;;;;5095092;28;20178;-54
2023/01/01 10:13:42;;;;;;;3.70;2.47;;;21.60;27.00;;;;;;5111788;22;20152;-52
2023/01/01 10:16:38;;;;;;;9.27;4.33;;;21.70;27.00;;;;;;5094344;28;20272;-52
2023/01/01 10:19:37;;;;;;;7.20;2.23;;;21.80;26.60;;;;;;5094842;28;20406;-51
2023/01/01 10:22:19;;;;;;;4.47;2.50;;;22.10;26.30;;;;;;5094783;28;20430;-52
2023/01/01 10:24:51;;;;;;;5.60;2.50;;;22.20;26.30;;;;;;5094497;28;20241;-52
2023/01/01 10:27:43;;;;;;;5.13;2.50;;;22.20;26.80;;;;;;5094694;28;20414;-52
2023/01/01 10:30:16;;;;;;;5.35;2.30;;;22.30;25.90;;;;;;5094706;28;20412;-51
2023/01/01 10:32:43;;;;;;;5.50;2.57;;;22.20;26.00;;;;;;5094563;28;20188;-52
2023/01/01 10:35:18;;;;;;;5.70;2.83;;;22.00;26.00;;;;;;5094200;28;20436;-52
2023/01/01 10:37:44;;;;;;;11.40;2.40;;;21.80;26.60;;;;;;5094449;28;20397;-52
2023/01/01 10:40:14;;;;;;;6.23;2.80;;;21.70;26.50;;;;;;5093566;28;20443;-52
2023/01/01 10:42:40;;;;;;;5.43;2.83;;;21.80;26.90;;;;;;5094478;28;20471;-52
2023/01/01 10:45:13;;;;;;;3.80;2.20;;;21.80;27.00;;;;;;5075930;28;20539;-52
2023/01/01 10:47:38;;;;;;;7.77;3.57;;;22.00;26.90;;;;;;5094268;28;20164;-52
2023/01/01 10:50:08;;;;;;;14.03;3.23;;;22.10;26.50;;;;;;5094222;28;20477;-52
2023/01/01 10:52:37;;;;;;;6.30;2.70;;;22.20;26.80;;;;;;5094095;28;20168;-52
2023/01/01 10:55:04;;;;;;;6.50;2.63;;;22.30;26.70;;;;;;5093838;28;20789;-52
2023/01/01 10:57:34;;;;;;;6.63;2.53;;;22.40;26.80;;;;;;5094102;28;20799;-52
2023/01/01 11:00:22;;;;;;;6.60;2.63;;;22.50;25.60;;;;;;5094103;28;20771;-52
2023/01/01 11:03:13;;;;;;;7.83;2.73;;;22.60;26.10;;;;;;5093989;28;20473;-52
2023/01/01 11:05:38;;;;;;;7.23;3.37;;;22.60;26.00;;;;;;5093759;28;20406;-52
2023/01/01 11:08:17;;;;;;;6.17;2.40;;;22.70;26.20;;;;;;5093877;28;20757;-52
2023/01/01 11:10:50;;;;;;;4.63;2.33;;;22.90;25.50;;;;;;5093905;28;20168;-52
2023/01/01 11:13:20;;;;;;;5.47;2.60;;;23.00;25.40;;;;;;5093658;28;20521;-52
2023/01/01 11:15:46;;;;;;;6.53;2.70;;;22.90;25.40;;;;;;5093586;28;20450;-52
2023/01/01 11:18:34;;;;;;;6.63;2.60;;;23.00;25.50;;;;;;5093664;28;20394;-52
2023/01/01 11:21:02;;;;;;;11.83;3.10;;;23.10;25.70;;;;;;5093723;28;20397;-52
2023/01/01 11:23:32;;;;;;;10.90;3.33;;;23.10;24.50;;;;;;5093484;28;20810;-52
2023/01/01 11:26:18;;;;;;;5.50;3.17;;;23.00;24.60;;;;;;5093277;28;20393;-52
2023/01/01 11:29:15;;;;;;;6.30;3.30;;;22.90;24.70;;;;;;5093784;28;20486;-52
2023/01/01 11:31:43;;;;;;;6.20;2.63;;;23.00;25.10;;;;;;5072049;28;20409;-52
2023/01/01 11:34:29;;;;;;;4.37;2.50;;;23.00;24.90;;;;;;5093235;28;20483;-52
2023/01/01 11:37:13;;;;;;;9.83;2.93;;;22.80;24.70;;;;;;5093315;28;20452;-52
2023/01/01 11:39:44;;;;;;;7.03;3.40;;;22.90;25.10;;;;;;5093577;28;20797;-52
2023/01/01 11:42:21;;;;;;;9.70;2.47;;;22.90;24.80;;;;;;5093174;28;20430;-52
2023/01/01 11:45:20;;;;;;;6.63;2.63;;;22.70;24.60;;;;;;5092791;28;20417;-53
2023/01/01 11:47:53;;;;;;;7.20;3.23;;;22.60;25.00;;;;;;5081608;28;20422;-52
2023/01/01 11:50:24;;;;;;;7.57;3.63;;;22.50;25.40;;;;;;5093090;28;20410;-52
2023/01/01 11:52:51;;;;;;;8.43;3.03;;;22.60;25.30;;;;;;5091932;28;20459;-52
2023/01/01 11:55:23;;;;;;;7.20;2.70;;;22.60;24.90;;;;;;5092532;28;20410;-52
2023/01/01 11:58:18;;;;;;;8.03;2.80;;;22.50;25.10;;;;;;5092922;28;20808;-52
2023/01/01 12:00:46;;;;;;;8.13;2.77;;;22.70;25.10;;;;;;5092903;28;20462;-52
2023/01/01 12:03:15;;;;;;;5.90;2.40;;;22.60;25.30;;;;;;5092785;28;20893;-52
2023/01/01 12:05:59;;;;;;;7.30;2.83;;;22.60;25.80;;;;;;5092513;28;20950;-52
2023/01/01 12:08:38;;;;;;;5.57;2.53;;;22.60;25.70;;;;;;5092760;28;20405;-53
2023/01/01 12:11:28;;;;;;;5.50;2.50;;;22.70;25.20;;;;;;5092694;28;20398;-52
2023/01/01 12:14:04;;;;;;;7.30;2.93;;;22.50;25.30;;;;;;5092338;28;20888;-53
2023/01/01 12:16:44;;;;;;;6.50;2.30;;;22.60;25.50;;;;;;5092429;28;20449;-52
2023/01/01 12:19:19;;;;;;;14.23;3.17;;;22.50;25.10;;;;;;5092623;28;20397;-52
2023/01/01 12:21:46;;;;;;;8.33;2.70;;;22.50;25.10;;;;;;5092555;28;20748;-52
2023/01/01 12:24:12;;;;;;;7.53;2.13;;;22.40;25.30;;;;;;5092302;28;20422;-52
2023/01/01 12:26:41;;;;;;;6.20;2.37;;;22.40;25.20;;;;;;5092403;28;20808;-52
2023/01/01 12:30:20;;;;;;;5.07;3.10;;;22.40;25.60;;;;;;5092480;28;20176;-52
2023/01/01 12:33:25;;;;;;;4.83;2.70;;;22.50;25.50;;;;;;4951698;29;20567;-52
2023/01/01 12:36:17;;;;;;;6.83;2.63;;;22.40;24.90;;;;;;4916211;29;20456;-52
2023/01/01 12:39:04;;;;;;;5.93;2.13;;;22.50;25.00;;;;;;4951786;29;20784;-52
2023/01/01 12:42:16;;;;;;;4.50;2.70;;;22.50;25.10;;;;;;4951812;29;20507;-52
2023/01/01 12:45:13;;;;;;;4.23;2.40;;;22.50;25.10;;;;;;4951493;29;20429;-52
2023/01/01 12:47:39;;;;;;;9.20;3.23;;;22.60;25.20;;;;;;4947883;29;20487;-52
2023/01/01 12:50:32;;;;;;;7.50;3.57;;;22.60;24.80;;;;;;4951683;29;20416;-52
2023/01/01 12:53:03;;;;;;;13.00;2.43;;;22.70;25.30;;;;;;4941481;29;20189;-52
2023/01/01 12:55:45;;;;;;;5.57;2.80;;;22.70;25.20;;;;;;4951354;29;20959;-52
2023/01/01 12:58:39;;;;;;;7.70;3.27;;;22.70;25.20;;;;;;4951645;29;20475;-52
2023/01/01 13:01:17;;;;;;;9.07;2.73;;;22.70;24.90;;;;;;4942534;29;20448;-52
2023/01/01 13:03:58;;;;;;;6.13;3.10;;;22.40;25.00;;;;;;4997446;28;20927;-52
2023/01/01 13:06:40;;;;;;;11.80;3.60;;;22.30;25.80;;;;;;5071825;28;20893;-52
2023/01/01 13:09:21;;;;;;;6.77;2.57;;;22.30;25.70;;;;;;5096517;28;20885;-52
2023/01/01 13:11:58;;;;;;;6.90;2.50;;;22.20;25.80;;;;;;5096119;28;20491;-52
2023/01/01 13:14:24;;;;;;;8.10;3.23;;;22.20;25.90;;;;;;5095544;28;20513;-52